createdAt,value
2023-02-05T00:00:26.095Z,61.63
2023-02-05T00:02:54.119Z,61.46
2023-02-05T00:05:22.057Z,61.44
2023-02-05T00:07:50.195Z,61.59
2023-02-05T00:10:19.640Z,61.17
2023-02-05T00:13:21.714Z,61.13
2023-02-05T00:15:57.361Z,60.90
2023-02-05T00:18:26.448Z,60.92
2023-02-05T00:20:54.368Z,61.13
2023-02-05T00:23:22.366Z,60.67
2023-02-05T00:25:50.339Z,60.49
2023-02-05T00:28:18.451Z,60.26
2023-02-05T00:30:50.234Z,60.67
2023-02-05T00:33:18.542Z,60.40
2023-02-05T00:35:46.803Z,60.21
2023-02-05T00:38:15.001Z,60.35
2023-02-05T00:40:49.073Z,60.47
2023-02-05T00:43:17.409Z,60.37
2023-02-05T00:45:47.285Z,60.40
2023-02-05T00:48:15.714Z,60.47
2023-02-05T00:50:43.965Z,60.17
2023-02-05T00:53:16.011Z,60.17
2023-02-05T00:55:47.647Z,60.24
2023-02-05T00:58:15.780Z,60.24
2023-02-05T01:00:43.922Z,60.39
2023-02-05T01:03:13.464Z,60.23
2023-02-05T01:05:43.558Z,60.07
2023-02-05T01:08:12.235Z,60.03
2023-02-05T01:10:42.970Z,60.04
2023-02-05T01:13:11.795Z,59.78
2023-02-05T01:15:39.865Z,60.37
2023-02-05T01:18:08.071Z,59.84
2023-02-05T01:20:38.876Z,60.02
2023-02-05T01:23:07.908Z,60.22
2023-02-05T01:25:36.035Z,60.06
2023-02-05T01:28:09.909Z,60.12
2023-02-05T01:30:39.823Z,60.24
2023-02-05T01:33:08.128Z,60.07
2023-02-05T01:35:39.458Z,59.97
2023-02-05T01:38:10.257Z,59.12
2023-02-05T01:40:38.378Z,59.50
2023-02-05T01:43:10.191Z,59.35
2023-02-05T01:45:50.985Z,59.46
2023-02-05T01:48:28.828Z,59.48
2023-02-05T01:51:09.527Z,59.15
2023-02-05T01:53:37.597Z,59.02
2023-02-05T01:56:07.902Z,59.04
2023-02-05T01:58:38.326Z,58.47
2023-02-05T02:01:06.849Z,59.27
2023-02-05T02:03:37.481Z,58.74
2023-02-05T02:06:16.445Z,58.68
2023-02-05T02:08:48.412Z,58.27
2023-02-05T02:11:17.350Z,58.50
2023-02-05T02:13:45.504Z,58.41
2023-02-05T02:16:13.635Z,58.59
2023-02-05T02:18:41.812Z,58.41
2023-02-05T02:21:45.819Z,58.60
2023-02-05T02:24:24.457Z,58.18
2023-02-05T02:27:33.473Z,58.16
2023-02-05T02:30:05.035Z,58.28
2023-02-05T02:32:36.568Z,58.30
2023-02-05T02:35:07.228Z,58.59
2023-02-05T02:37:39.683Z,58.10
2023-02-05T02:40:09.717Z,58.18
2023-02-05T02:42:41.092Z,58.36
2023-02-05T02:45:11.770Z,58.59
2023-02-05T02:47:43.376Z,58.36
2023-02-05T02:50:12.675Z,58.63
2023-02-05T02:52:42.213Z,58.62
2023-02-05T02:55:11.737Z,58.52
2023-02-05T02:57:44.688Z,58.73
2023-02-05T03:00:15.946Z,58.82
2023-02-05T03:02:44.346Z,58.19
2023-02-05T03:05:14.173Z,58.27
2023-02-05T03:07:43.889Z,58.11
2023-02-05T03:10:14.200Z,58.70
2023-02-05T03:12:43.908Z,58.84
2023-02-05T03:15:16.096Z,59.10
2023-02-05T03:17:44.479Z,58.71
2023-02-05T03:20:16.635Z,58.75
2023-02-05T03:22:45.063Z,59.05
2023-02-05T03:25:13.721Z,58.76
2023-02-05T03:27:44.343Z,58.87
2023-02-05T03:30:12.912Z,59.00
2023-02-05T03:32:52.560Z,59.28
2023-02-05T03:35:28.104Z,59.03
2023-02-05T03:38:15.252Z,59.37
2023-02-05T03:40:46.855Z,59.38
2023-02-05T03:43:17.355Z,59.86
2023-02-05T03:45:51.216Z,59.97
2023-02-05T03:48:29.547Z,60.09
2023-02-05T03:51:03.811Z,60.15
2023-02-05T03:53:37.737Z,60.37
2023-02-05T03:56:08.465Z,60.15
2023-02-05T03:58:38.396Z,60.24
2023-02-05T04:01:08.991Z,60.35
2023-02-05T04:03:38.652Z,60.32
2023-02-05T04:06:07.263Z,60.40
2023-02-05T04:08:36.356Z,60.30
2023-02-05T04:11:04.668Z,60.68
2023-02-05T04:13:33.893Z,60.49
2023-02-05T04:16:03.944Z,60.67
2023-02-05T04:18:31.951Z,60.56
2023-02-05T04:21:01.764Z,60.38
2023-02-05T04:23:30.829Z,60.35
2023-02-05T04:25:59.004Z,60.33
2023-02-05T04:28:34.639Z,60.24
2023-02-05T04:31:08.090Z,60.33
2023-02-05T04:33:37.845Z,60.49
2023-02-05T04:36:07.996Z,60.80
2023-02-05T04:38:36.248Z,60.63
2023-02-05T04:41:04.225Z,60.49
2023-02-05T04:43:32.391Z,60.52
2023-02-05T04:46:05.691Z,60.53
2023-02-05T04:48:33.884Z,60.97
2023-02-05T04:51:02.045Z,61.03
2023-02-05T04:53:31.612Z,60.61
2023-02-05T04:56:06.600Z,60.84
2023-02-05T04:58:34.593Z,60.27
2023-02-05T05:01:02.558Z,60.38
2023-02-05T05:03:30.679Z,60.55
2023-02-05T05:06:00.981Z,60.53
2023-02-05T05:08:28.990Z,60.51
2023-02-05T05:10:58.360Z,60.49
2023-02-05T05:13:26.598Z,60.43
2023-02-05T05:15:55.036Z,60.28
2023-02-05T05:18:23.269Z,60.46
2023-02-05T05:20:51.489Z,60.61
2023-02-05T05:23:19.609Z,60.41
2023-02-05T05:25:48.548Z,60.25
2023-02-05T05:28:18.111Z,60.28
2023-02-05T05:30:47.106Z,60.14
2023-02-05T05:33:15.277Z,59.90
2023-02-05T05:35:43.453Z,59.89
2023-02-05T05:38:12.443Z,59.65
2023-02-05T05:40:58.434Z,59.60
2023-02-05T05:43:45.586Z,59.54
2023-02-05T05:46:14.846Z,59.73
2023-02-05T05:48:44.970Z,59.38
2023-02-05T05:51:13.472Z,59.57
2023-02-05T05:53:41.424Z,59.35
2023-02-05T05:56:09.498Z,59.43
2023-02-05T05:58:39.040Z,59.55
2023-02-05T06:01:07.490Z,59.21
2023-02-05T06:03:35.553Z,59.32
2023-02-05T06:06:03.946Z,59.31
2023-02-05T06:08:32.262Z,59.21
2023-02-05T06:11:00.306Z,59.33
2023-02-05T06:13:28.300Z,59.25
2023-02-05T06:15:57.640Z,58.90
2023-02-05T06:18:25.627Z,59.10
2023-02-05T06:20:53.579Z,59.05
2023-02-05T06:23:21.835Z,58.96
2023-02-05T06:25:50.157Z,58.84
2023-02-05T06:28:18.418Z,58.68
2023-02-05T06:30:46.896Z,58.79
2023-02-05T06:33:23.614Z,58.18
2023-02-05T06:35:51.770Z,57.83
2023-02-05T06:38:22.186Z,57.75
2023-02-05T06:40:50.299Z,57.75
2023-02-05T06:43:18.259Z,57.60
2023-02-05T06:45:46.750Z,57.64
2023-02-05T06:48:16.295Z,57.47
2023-02-05T06:50:44.455Z,57.22
2023-02-05T06:53:12.387Z,57.51
2023-02-05T06:55:40.882Z,57.19
2023-02-05T06:58:08.842Z,57.23
2023-02-05T07:00:37.009Z,57.09
2023-02-05T07:03:05.054Z,57.04
2023-02-05T07:05:35.708Z,57.12
2023-02-05T07:08:06.924Z,57.05
2023-02-05T07:10:35.115Z,56.78
2023-02-05T07:13:05.766Z,56.66
2023-02-05T07:15:34.524Z,56.81
2023-02-05T07:18:02.978Z,56.44
2023-02-05T07:20:31.129Z,56.61
2023-02-05T07:23:00.488Z,56.31
2023-02-05T07:25:28.925Z,56.10
2023-02-05T07:27:56.929Z,56.18
2023-02-05T07:30:25.050Z,56.22
2023-02-05T07:32:53.040Z,56.17
2023-02-05T07:35:22.391Z,56.44
2023-02-05T07:37:50.311Z,55.69
2023-02-05T07:40:19.951Z,55.70
2023-02-05T07:42:47.927Z,55.48
2023-02-05T07:45:15.973Z,55.34
2023-02-05T07:47:43.869Z,55.35
2023-02-05T07:50:12.042Z,55.15
2023-02-05T07:52:40.023Z,55.36
2023-02-05T07:55:08.481Z,55.28
2023-02-05T07:57:37.817Z,55.04
2023-02-05T08:00:07.744Z,54.92
2023-02-05T08:02:40.040Z,54.97
2023-02-05T08:05:08.553Z,54.65
2023-02-05T08:07:37.581Z,55.29
2023-02-05T08:10:06.532Z,54.83
2023-02-05T08:12:34.647Z,54.63
2023-02-05T08:15:04.661Z,54.54
2023-02-05T08:17:32.928Z,54.43
2023-02-05T08:20:07.108Z,54.54
2023-02-05T08:22:35.555Z,54.52
2023-02-05T08:25:03.540Z,54.86
2023-02-05T08:27:35.638Z,54.59
2023-02-05T08:30:05.362Z,54.53
2023-02-05T08:32:33.533Z,54.13
2023-02-05T08:35:01.682Z,54.49
2023-02-05T08:37:30.000Z,54.43
2023-02-05T08:39:58.154Z,54.32
2023-02-05T08:42:38.614Z,54.36
2023-02-05T08:45:10.037Z,54.52
2023-02-05T08:47:38.062Z,54.44
2023-02-05T08:50:06.669Z,54.31
2023-02-05T08:52:37.291Z,54.41
2023-02-05T08:55:06.099Z,54.46
2023-02-05T08:57:34.583Z,54.17
2023-02-05T09:00:02.557Z,54.12
2023-02-05T09:02:32.288Z,53.71
2023-02-05T09:05:08.487Z,53.75
2023-02-05T09:07:37.498Z,53.60
2023-02-05T09:10:05.731Z,53.74
2023-02-05T09:12:34.264Z,53.82
2023-02-05T09:15:02.241Z,53.70
2023-02-05T09:17:31.563Z,53.36
2023-02-05T09:20:02.300Z,53.39
2023-02-05T09:22:31.567Z,53.30
2023-02-05T09:25:00.783Z,53.39
2023-02-05T09:27:28.706Z,52.88
2023-02-05T09:29:56.674Z,52.98
2023-02-05T09:32:24.906Z,52.58
2023-02-05T09:34:54.260Z,52.43
2023-02-05T09:37:22.566Z,52.02
2023-02-05T09:40:19.333Z,51.46
2023-02-05T09:42:41.985Z,51.80
2023-02-05T09:45:18.135Z,51.63
2023-02-05T09:47:48.884Z,51.33
2023-02-05T09:50:25.666Z,51.00
2023-02-05T09:52:53.811Z,51.31
2023-02-05T09:55:22.838Z,51.08
2023-02-05T09:57:54.527Z,50.48
2023-02-05T10:00:25.346Z,50.53
2023-02-05T10:02:58.828Z,49.29
2023-02-05T10:05:56.866Z,49.00
2023-02-05T10:11:50.340Z,47.99
2023-02-05T10:14:27.162Z,47.51
2023-02-05T10:17:44.454Z,47.69
2023-02-05T10:20:26.969Z,47.25
2023-02-05T10:23:31.833Z,46.98
2023-02-05T10:26:25.802Z,46.18
2023-02-05T10:32:23.696Z,46.74
2023-02-05T10:35:09.813Z,46.88
2023-02-05T10:37:41.537Z,46.32
2023-02-05T10:40:19.309Z,46.59
2023-02-05T10:42:49.117Z,46.52
2023-02-05T10:45:26.414Z,45.92
2023-02-05T10:48:49.593Z,46.36
2023-02-05T10:51:26.153Z,46.20
2023-02-05T10:53:55.992Z,46.05
2023-02-05T10:56:27.724Z,45.90
2023-02-05T10:58:59.099Z,45.64
2023-02-05T11:01:31.692Z,45.86
2023-02-05T11:04:04.105Z,45.40
2023-02-05T11:06:36.981Z,45.29
2023-02-05T11:09:21.003Z,45.07
2023-02-05T11:11:56.265Z,44.59
2023-02-05T11:14:26.905Z,44.13
2023-02-05T11:16:54.892Z,44.68
2023-02-05T11:19:26.370Z,44.91
2023-02-05T11:21:55.605Z,45.12
2023-02-05T11:24:29.560Z,44.27
2023-02-05T11:27:28.257Z,44.41
2023-02-05T11:29:58.111Z,43.75
2023-02-05T11:32:33.167Z,42.52
2023-02-05T11:35:17.400Z,42.71
2023-02-05T11:37:45.584Z,42.37
2023-02-05T11:40:20.856Z,42.02
2023-02-05T11:42:55.604Z,41.90
2023-02-05T11:45:25.791Z,42.73
2023-02-05T11:47:56.199Z,43.21
2023-02-05T11:50:25.778Z,43.07
2023-02-05T11:52:57.375Z,42.87
2023-02-05T11:55:32.346Z,42.49
2023-02-05T11:58:11.678Z,41.87
2023-02-05T12:00:42.675Z,42.18
2023-02-05T12:03:21.366Z,41.96
2023-02-05T12:05:55.476Z,42.13
2023-02-05T12:08:31.862Z,41.62
2023-02-05T12:11:08.349Z,41.01
2023-02-05T12:13:48.368Z,40.95
2023-02-05T12:16:26.236Z,41.16
2023-02-05T12:19:03.452Z,41.63
2023-02-05T12:21:36.716Z,41.22
2023-02-05T12:24:40.763Z,40.76
2023-02-05T12:27:21.095Z,40.23
2023-02-05T12:30:02.517Z,40.21
2023-02-05T12:32:37.643Z,39.74
2023-02-05T12:35:18.265Z,38.91
2023-02-05T12:37:52.308Z,38.49
2023-02-05T12:40:57.630Z,39.07
2023-02-05T12:43:32.666Z,39.14
2023-02-05T12:46:29.308Z,39.13
2023-02-05T12:49:15.471Z,39.04
2023-02-05T12:52:05.933Z,38.87
2023-02-05T12:54:44.542Z,39.07
2023-02-05T12:57:13.211Z,38.41
2023-02-05T12:59:42.337Z,38.20
2023-02-05T13:02:23.760Z,38.12
2023-02-05T13:04:57.425Z,38.31
2023-02-05T13:07:30.575Z,38.61
2023-02-05T13:10:01.468Z,38.61
2023-02-05T13:12:56.019Z,38.29
2023-02-05T13:15:39.959Z,38.08
2023-02-05T13:18:46.617Z,38.50
2023-02-05T13:21:48.368Z,38.27
2023-02-05T13:25:00.736Z,37.65
2023-02-05T13:27:50.230Z,37.59
2023-02-05T13:30:20.899Z,37.49
2023-02-05T13:32:50.641Z,38.04
2023-02-05T13:35:37.178Z,37.74
2023-02-05T13:38:49.945Z,37.82
2023-02-05T13:41:43.548Z,37.88
2023-02-05T13:44:42.288Z,37.64
2023-02-05T13:47:24.709Z,37.37
2023-02-05T13:50:09.849Z,37.01
2023-02-05T13:52:59.039Z,37.48
2023-02-05T13:55:45.232Z,37.12
2023-02-05T13:58:22.009Z,37.61
2023-02-05T14:00:56.290Z,36.53
2023-02-05T14:03:30.620Z,36.47
2023-02-05T14:06:00.346Z,36.57
2023-02-05T14:08:49.362Z,36.76
2023-02-05T14:11:31.080Z,36.79
2023-02-05T14:14:36.121Z,36.85
2023-02-05T14:17:13.992Z,36.55
2023-02-05T14:19:57.224Z,36.76
2023-02-05T14:22:43.179Z,36.64
2023-02-05T14:25:52.092Z,37.06
2023-02-05T14:28:56.386Z,37.01
2023-02-05T14:31:49.928Z,37.14
2023-02-05T14:34:46.292Z,37.78
2023-02-05T14:37:26.338Z,37.67
2023-02-05T14:40:32.107Z,37.90
2023-02-05T14:46:12.134Z,37.50
2023-02-05T14:48:44.689Z,37.47
2023-02-05T14:58:15.363Z,37.54
2023-02-05T15:00:51.301Z,37.59
2023-02-05T15:03:32.304Z,37.44
2023-02-05T15:06:17.863Z,37.26
2023-02-05T15:09:02.875Z,37.17
2023-02-05T15:12:22.216Z,36.80
2023-02-05T15:15:35.869Z,37.03
2023-02-05T15:18:11.840Z,36.22
2023-02-05T15:20:43.814Z,36.61
2023-02-05T15:23:19.777Z,36.70
2023-02-05T15:26:24.383Z,36.56
2023-02-05T15:29:01.761Z,36.48
2023-02-05T15:34:47.760Z,37.02
2023-02-05T15:37:25.109Z,36.68
2023-02-05T15:40:03.079Z,36.64
2023-02-05T15:42:34.526Z,36.38
2023-02-05T15:45:43.676Z,36.81
2023-02-05T15:48:47.893Z,37.00
2023-02-05T15:51:31.769Z,36.21
2023-02-05T15:54:35.544Z,36.72
2023-02-05T15:57:04.209Z,37.05
2023-02-05T15:59:32.642Z,37.19
2023-02-05T16:02:05.873Z,37.37
2023-02-05T16:04:47.349Z,37.50
2023-02-05T16:07:32.987Z,37.57
2023-02-05T16:10:04.478Z,37.60
2023-02-05T16:12:35.255Z,37.42
2023-02-05T16:15:05.585Z,37.79
2023-02-05T16:17:37.036Z,38.01
2023-02-05T16:20:14.476Z,37.82
2023-02-05T16:22:52.602Z,37.49
2023-02-05T16:25:34.026Z,37.71
2023-02-05T16:28:04.034Z,37.50
2023-02-05T16:30:33.524Z,37.48
2023-02-05T16:33:02.474Z,37.60
2023-02-05T16:35:33.881Z,37.39
2023-02-05T16:38:08.854Z,37.27
2023-02-05T16:40:43.146Z,37.29
2023-02-05T16:43:31.742Z,37.15
2023-02-05T16:46:25.402Z,36.92
2023-02-05T16:48:54.860Z,37.15
2023-02-05T16:51:35.542Z,37.05
2023-02-05T16:54:04.662Z,37.36
2023-02-05T16:56:35.939Z,37.66
2023-02-05T16:59:04.620Z,37.57
2023-02-05T17:01:39.593Z,37.75
2023-02-05T17:04:10.243Z,38.59
2023-02-05T17:06:40.895Z,39.61
2023-02-05T17:09:09.396Z,39.95
2023-02-05T17:11:39.653Z,41.12
2023-02-05T17:14:22.978Z,42.00
2023-02-05T17:16:57.930Z,42.71
2023-02-05T17:19:26.879Z,42.70
2023-02-05T17:22:22.636Z,43.05
2023-02-05T17:24:51.947Z,43.70
2023-02-05T17:27:26.095Z,43.71
2023-02-05T17:29:54.449Z,44.65
2023-02-05T17:32:24.767Z,44.70
2023-02-05T17:35:07.770Z,44.77
2023-02-05T17:37:36.249Z,44.73
2023-02-05T17:40:04.481Z,45.30
2023-02-05T17:42:34.055Z,45.15
2023-02-05T17:45:02.048Z,45.45
2023-02-05T17:47:30.102Z,45.51
2023-02-05T17:50:10.468Z,45.60
2023-02-05T17:52:47.451Z,45.76
2023-02-05T17:55:16.546Z,45.60
2023-02-05T17:57:46.060Z,45.70
2023-02-05T18:00:15.553Z,45.88
2023-02-05T18:02:43.485Z,46.06
2023-02-05T18:05:12.896Z,46.19
2023-02-05T18:07:42.949Z,46.40
2023-02-05T18:10:19.349Z,46.06
2023-02-05T18:12:50.278Z,46.47
2023-02-05T18:15:18.609Z,46.76
2023-02-05T18:17:46.591Z,46.72
2023-02-05T18:20:19.540Z,46.82
2023-02-05T18:22:47.686Z,47.22
2023-02-05T18:25:15.758Z,47.24
2023-02-05T18:27:46.903Z,47.39
2023-02-05T18:30:17.831Z,47.28
2023-02-05T18:32:46.063Z,47.29
2023-02-05T18:35:14.865Z,47.59
2023-02-05T18:37:45.291Z,47.78
2023-02-05T18:40:21.167Z,47.80
2023-02-05T18:42:53.909Z,47.93
2023-02-05T18:45:30.870Z,47.80
2023-02-05T18:47:59.107Z,48.12
2023-02-05T18:50:29.188Z,47.96
2023-02-05T18:52:59.825Z,48.26
2023-02-05T18:55:29.378Z,48.16
2023-02-05T18:57:58.466Z,48.14
2023-02-05T19:00:27.891Z,48.17
2023-02-05T19:02:56.426Z,47.96
2023-02-05T19:05:24.492Z,48.05
2023-02-05T19:07:52.427Z,48.01
2023-02-05T19:10:20.614Z,47.88
2023-02-05T19:12:52.854Z,48.00
2023-02-05T19:15:21.436Z,47.92
2023-02-05T19:17:51.087Z,48.37
2023-02-05T19:20:19.226Z,48.09
2023-02-05T19:22:47.183Z,48.06
2023-02-05T19:25:15.679Z,48.35
2023-02-05T19:27:43.751Z,48.12
2023-02-05T19:30:14.080Z,48.10
2023-02-05T19:32:42.229Z,48.24
2023-02-05T19:35:11.618Z,48.19
2023-02-05T19:37:39.604Z,48.11
2023-02-05T19:40:09.301Z,48.25
2023-02-05T19:42:37.502Z,48.25
2023-02-05T19:45:06.182Z,48.03
2023-02-05T19:47:34.229Z,48.33
2023-02-05T19:50:02.377Z,48.36
2023-02-05T19:52:32.318Z,48.39
2023-02-05T19:55:00.501Z,48.28
2023-02-05T19:57:32.166Z,48.71
2023-02-05T20:00:00.193Z,48.60
2023-02-05T20:02:28.337Z,48.44
2023-02-05T20:04:56.412Z,48.61
2023-02-05T20:07:24.676Z,48.41
2023-02-05T20:09:54.058Z,48.52
2023-02-05T20:12:22.072Z,48.44
2023-02-05T20:14:50.046Z,48.68
2023-02-05T20:17:18.941Z,48.83
2023-02-05T20:19:46.856Z,48.67
2023-02-05T20:22:20.909Z,49.13
2023-02-05T20:24:51.583Z,48.87
2023-02-05T20:27:22.847Z,49.10
2023-02-05T20:30:10.322Z,49.06
2023-02-05T20:32:38.577Z,48.70
2023-02-05T20:35:07.556Z,48.92
2023-02-05T20:37:37.653Z,49.14
2023-02-05T20:40:06.066Z,49.30
2023-02-05T20:42:35.394Z,48.99
2023-02-05T20:45:03.406Z,49.33
2023-02-05T20:47:31.352Z,49.58
2023-02-05T20:49:59.312Z,49.03
2023-02-05T20:52:27.284Z,49.23
2023-02-05T20:54:57.190Z,49.08
2023-02-05T20:57:25.154Z,49.59
2023-02-05T20:59:56.795Z,49.59
2023-02-05T21:02:26.500Z,49.36
2023-02-05T21:04:54.521Z,49.55
2023-02-05T21:07:29.654Z,49.67
2023-02-05T21:09:59.601Z,49.34
2023-02-05T21:12:31.186Z,49.68
2023-02-05T21:15:00.794Z,49.72
2023-02-05T21:17:28.765Z,49.54
2023-02-05T21:19:56.713Z,49.40
2023-02-05T21:22:25.099Z,49.83
2023-02-05T21:25:00.444Z,49.49
2023-02-05T21:27:28.570Z,49.31
2023-02-05T21:29:56.475Z,50.17
2023-02-05T21:32:27.975Z,49.34
2023-02-05T21:34:58.565Z,49.77
2023-02-05T21:37:27.119Z,49.62
2023-02-05T21:40:00.786Z,49.61
2023-02-05T21:42:35.878Z,49.73
2023-02-05T21:45:04.088Z,49.77
2023-02-05T21:47:33.626Z,50.02
2023-02-05T21:50:01.699Z,49.55
2023-02-05T21:52:29.660Z,49.81
2023-02-05T21:54:57.642Z,49.62
2023-02-05T21:57:25.880Z,49.95
2023-02-05T21:59:53.934Z,50.09
2023-02-05T22:02:24.546Z,50.12
2023-02-05T22:04:54.335Z,50.08
2023-02-05T22:07:22.538Z,50.46
2023-02-05T22:09:50.698Z,49.58
2023-02-05T22:12:18.866Z,50.63
2023-02-05T22:14:46.771Z,50.56
2023-02-05T22:17:14.803Z,50.18
2023-02-05T22:19:45.299Z,50.46
2023-02-05T22:22:14.831Z,50.03
2023-02-05T22:24:42.803Z,50.36
2023-02-05T22:27:10.956Z,49.88
2023-02-05T22:29:39.249Z,50.23
2023-02-05T22:32:07.279Z,50.36
2023-02-05T22:34:42.624Z,50.64
2023-02-05T22:37:12.208Z,50.88
2023-02-05T22:39:42.849Z,50.46
2023-02-05T22:42:11.884Z,50.50
2023-02-05T22:44:39.945Z,50.70
2023-02-05T22:47:19.742Z,50.64
2023-02-05T22:49:48.926Z,50.50
2023-02-05T22:52:16.817Z,50.49
2023-02-05T22:54:46.186Z,50.34
2023-02-05T22:57:14.415Z,50.59
2023-02-05T22:59:42.469Z,50.93
2023-02-05T23:02:10.531Z,50.58
2023-02-05T23:04:38.669Z,50.30
2023-02-05T23:07:11.037Z,50.66
2023-02-05T23:09:39.005Z,50.45
2023-02-05T23:12:08.571Z,50.79
2023-02-05T23:14:36.650Z,50.71
2023-02-05T23:17:04.559Z,51.26
2023-02-05T23:19:32.732Z,51.02
2023-02-05T23:22:02.775Z,50.99
2023-02-05T23:24:30.844Z,50.55
2023-02-05T23:27:00.112Z,50.77
2023-02-05T23:29:29.647Z,51.19
2023-02-05T23:31:57.631Z,51.68
2023-02-05T23:34:26.525Z,51.41
2023-02-05T23:36:56.315Z,51.66
2023-02-05T23:39:24.554Z,51.28
2023-02-05T23:41:55.185Z,51.78
2023-02-05T23:44:23.162Z,51.31
2023-02-05T23:46:52.688Z,51.27
2023-02-05T23:49:22.070Z,51.46
2023-02-05T23:51:51.282Z,51.70
2023-02-05T23:54:19.287Z,51.78
2023-02-05T23:56:47.455Z,51.26
2023-02-05T23:59:15.743Z,51.45
